sensor_id;sensor_type;location;lat;lon;timestamp;temperature;humidity
843;DHT22;407;48.884;9.126;2023-03-01T00:01:23;0.10;1.00
843;DHT22;407;48.884;9.126;2023-03-01T00:03:50;0.10;1.00
843;DHT22;407;48.884;9.126;2023-03-01T00:06:18;0.10;1.00
843;DHT22;407;48.884;9.126;2023-03-01T00:08:44;0.00;1.00
843;DHT22;407;48.884;9.126;2023-03-01T00:11:15;-0.10;1.00
843;DHT22;407;48.884;9.126;2023-03-01T00:13:43;-0.10;1.00
843;DHT22;407;48.884;9.126;2023-03-01T00:16:12;-0.20;1.00
843;DHT22;407;48.884;9.126;2023-03-01T00:18:38;-0.20;1.00
843;DHT22;407;48.884;9.126;2023-03-01T00:21:04;-0.30;1.00
843;DHT22;407;48.884;9.126;2023-03-01T00:23:30;-0.40;1.00
843;DHT22;407;48.884;9.126;2023-03-01T00:25:56;-0.50;1.00
843;DHT22;407;48.884;9.126;2023-03-01T00:28:22;-0.50;1.00
843;DHT22;407;48.884;9.126;2023-03-01T00:30:48;-0.50;1.00
843;DHT22;407;48.884;9.126;2023-03-01T00:33:13;-0.60;1.00
843;DHT22;407;48.884;9.126;2023-03-01T00:35:39;-0.70;1.00
843;DHT22;407;48.884;9.126;2023-03-01T00:38:05;-0.70;1.00
843;DHT22;407;48.884;9.126;2023-03-01T00:40:33;-0.70;21.80
843;DHT22;407;48.884;9.126;2023-03-01T00:43:01;-0.70;74.60
843;DHT22;407;48.884;9.126;2023-03-01T00:45:27;-0.70;99.90
843;DHT22;407;48.884;9.126;2023-03-01T00:47:53;-0.70;99.90
843;DHT22;407;48.884;9.126;2023-03-01T00:50:20;-0.80;99.90
843;DHT22;407;48.884;9.126;2023-03-01T00:53:03;-0.90;99.90
843;DHT22;407;48.884;9.126;2023-03-01T00:55:30;-1.00;99.90
843;DHT22;407;48.884;9.126;2023-03-01T00:57:55;-1.00;1.00
843;DHT22;407;48.884;9.126;2023-03-01T01:00:22;-1.00;1.00
843;DHT22;407;48.884;9.126;2023-03-01T01:02:48;-0.90;1.00
843;DHT22;407;48.884;9.126;2023-03-01T01:05:14;-0.90;1.00
843;DHT22;407;48.884;9.126;2023-03-01T05:09:16;0.90;1.00
843;DHT22;407;48.884;9.126;2023-03-01T05:11:42;0.90;1.00
843;DHT22;407;48.884;9.126;2023-03-01T05:14:09;0.90;1.00
843;DHT22;407;48.884;9.126;2023-03-01T05:16:36;1.00;1.00
843;DHT22;407;48.884;9.126;2023-03-01T05:19:03;1.00;1.00
843;DHT22;407;48.884;9.126;2023-03-01T05:21:37;0.90;1.00
843;DHT22;407;48.884;9.126;2023-03-01T05:24:24;2.30;1.00
843;DHT22;407;48.884;9.126;2023-03-01T05:26:50;0.80;1.00
843;DHT22;407;48.884;9.126;2023-03-01T05:29:21;0.80;1.00
843;DHT22;407;48.884;9.126;2023-03-01T05:31:54;0.90;1.00
843;DHT22;407;48.884;9.126;2023-03-01T05:34:29;0.80;1.00
843;DHT22;407;48.884;9.126;2023-03-01T05:36:56;0.80;1.00
843;DHT22;407;48.884;9.126;2023-03-01T05:39:23;0.80;1.00
843;DHT22;407;48.884;9.126;2023-03-01T05:41:53;0.90;1.00
843;DHT22;407;48.884;9.126;2023-03-01T05:44:21;0.70;1.00
843;DHT22;407;48.884;9.126;2023-03-01T05:46:48;0.50;1.00
843;DHT22;407;48.884;9.126;2023-03-01T05:49:15;0.50;1.00
843;DHT22;407;48.884;9.126;2023-03-01T05:51:41;0.50;1.00
843;DHT22;407;48.884;9.126;2023-03-01T05:54:07;0.60;1.00
843;DHT22;407;48.884;9.126;2023-03-01T05:56:37;0.80;1.00
843;DHT22;407;48.884;9.126;2023-03-01T05:59:04;0.70;1.00
843;DHT22;407;48.884;9.126;2023-03-01T06:01:31;0.70;1.00
843;DHT22;407;48.884;9.126;2023-03-01T06:03:58;0.60;1.00
843;DHT22;407;48.884;9.126;2023-03-01T06:06:24;0.40;1.00
843;DHT22;407;48.884;9.126;2023-03-01T06:08:50;0.30;1.00
843;DHT22;407;48.884;9.126;2023-03-01T06:11:15;0.40;1.00
843;DHT22;407;48.884;9.126;2023-03-01T06:13:44;0.60;1.00
843;DHT22;407;48.884;9.126;2023-03-01T06:16:12;0.60;1.00
843;DHT22;407;48.884;9.126;2023-03-01T06:18:38;0.60;1.00
843;DHT22;407;48.884;9.126;2023-03-01T06:21:05;0.50;1.00
843;DHT22;407;48.884;9.126;2023-03-01T06:23:31;0.40;1.00
843;DHT22;407;48.884;9.126;2023-03-01T06:25:57;0.50;1.00
843;DHT22;407;48.884;9.126;2023-03-01T06:28:22;0.50;1.00
843;DHT22;407;48.884;9.126;2023-03-01T06:30:49;0.50;1.00
843;DHT22;407;48.884;9.126;2023-03-01T06:33:15;0.60;1.00
843;DHT22;407;48.884;9.126;2023-03-01T06:35:41;0.60;1.00
843;DHT22;407;48.884;9.126;2023-03-01T06:38:06;0.70;1.00
843;DHT22;407;48.884;9.126;2023-03-01T06:40:32;0.70;1.00
843;DHT22;407;48.884;9.126;2023-03-01T06:43:00;0.80;1.00
843;DHT22;407;48.884;9.126;2023-03-01T06:45:26;1.10;1.00
843;DHT22;407;48.884;9.126;2023-03-01T06:47:52;1.10;1.00
843;DHT22;407;48.884;9.126;2023-03-01T06:50:18;1.00;1.00
843;DHT22;407;48.884;9.126;2023-03-01T06:52:44;1.30;1.00
843;DHT22;407;48.884;9.126;2023-03-01T06:55:12;1.30;1.00
843;DHT22;407;48.884;9.126;2023-03-01T06:57:38;1.90;1.00
843;DHT22;407;48.884;9.126;2023-03-01T07:00:04;2.60;1.00
843;DHT22;407;48.884;9.126;2023-03-01T07:02:31;3.30;1.00
843;DHT22;407;48.884;9.126;2023-03-01T07:04:57;3.70;99.90
843;DHT22;407;48.884;9.126;2023-03-01T07:07:22;4.70;99.90
843;DHT22;407;48.884;9.126;2023-03-01T07:09:49;4.30;99.90
843;DHT22;407;48.884;9.126;2023-03-01T07:12:15;4.80;99.90
843;DHT22;407;48.884;9.126;2023-03-01T07:14:40;5.40;99.90
843;DHT22;407;48.884;9.126;2023-03-01T07:17:06;5.80;99.90
843;DHT22;407;48.884;9.126;2023-03-01T07:19:32;6.90;99.90
843;DHT22;407;48.884;9.126;2023-03-01T07:21:58;5.90;99.90
843;DHT22;407;48.884;9.126;2023-03-01T07:24:24;6.60;99.90
843;DHT22;407;48.884;9.126;2023-03-01T07:26:53;7.60;99.90
843;DHT22;407;48.884;9.126;2023-03-01T07:29:19;6.90;99.90
843;DHT22;407;48.884;9.126;2023-03-01T07:31:44;7.20;99.90
843;DHT22;407;48.884;9.126;2023-03-01T07:34:10;8.70;99.90
843;DHT22;407;48.884;9.126;2023-03-01T07:36:36;7.80;99.90
843;DHT22;407;48.884;9.126;2023-03-01T07:39:02;8.60;99.90
843;DHT22;407;48.884;9.126;2023-03-01T07:41:28;9.00;99.90
843;DHT22;407;48.884;9.126;2023-03-01T07:43:54;9.20;99.90
843;DHT22;407;48.884;9.126;2023-03-01T07:46:20;8.80;99.90
843;DHT22;407;48.884;9.126;2023-03-01T07:48:45;8.30;99.90
843;DHT22;407;48.884;9.126;2023-03-01T07:51:11;8.80;99.90
843;DHT22;407;48.884;9.126;2023-03-01T07:53:37;8.90;99.90
843;DHT22;407;48.884;9.126;2023-03-01T07:56:11;9.20;99.90
843;DHT22;407;48.884;9.126;2023-03-01T07:58:38;8.70;99.90
843;DHT22;407;48.884;9.126;2023-03-01T08:01:06;7.80;99.90
843;DHT22;407;48.884;9.126;2023-03-01T08:03:33;8.90;99.90
843;DHT22;407;48.884;9.126;2023-03-01T08:06:01;8.60;99.90
843;DHT22;407;48.884;9.126;2023-03-01T08:08:27;8.30;99.90
843;DHT22;407;48.884;9.126;2023-03-01T08:10:56;7.80;99.90
843;DHT22;407;48.884;9.126;2023-03-01T08:13:22;8.00;99.90
843;DHT22;407;48.884;9.126;2023-03-01T08:15:49;7.50;99.90
843;DHT22;407;48.884;9.126;2023-03-01T08:18:15;8.30;99.90
843;DHT22;407;48.884;9.126;2023-03-01T08:20:41;8.70;99.90
843;DHT22;407;48.884;9.126;2023-03-01T08:23:07;9.60;99.90
843;DHT22;407;48.884;9.126;2023-03-01T08:25:33;10.10;99.90
843;DHT22;407;48.884;9.126;2023-03-01T08:27:58;10.40;99.90
843;DHT22;407;48.884;9.126;2023-03-01T08:30:24;10.10;99.90
843;DHT22;407;48.884;9.126;2023-03-01T08:32:50;9.80;99.90
843;DHT22;407;48.884;9.126;2023-03-01T08:35:16;10.30;99.90
843;DHT22;407;48.884;9.126;2023-03-01T08:37:42;10.60;99.90
843;DHT22;407;48.884;9.126;2023-03-01T08:40:08;10.80;99.90
843;DHT22;407;48.884;9.126;2023-03-01T08:42:35;10.70;99.90
843;DHT22;407;48.884;9.126;2023-03-01T08:45:02;10.70;99.90
843;DHT22;407;48.884;9.126;2023-03-01T08:47:27;11.90;99.90
843;DHT22;407;48.884;9.126;2023-03-01T08:49:53;12.30;99.90
843;DHT22;407;48.884;9.126;2023-03-01T08:52:20;13.30;99.90
843;DHT22;407;48.884;9.126;2023-03-01T08:54:47;13.30;99.90
843;DHT22;407;48.884;9.126;2023-03-01T08:57:13;13.60;99.90
843;DHT22;407;48.884;9.126;2023-03-01T08:59:39;13.40;99.90
843;DHT22;407;48.884;9.126;2023-03-01T09:02:08;13.80;99.90
843;DHT22;407;48.884;9.126;2023-03-01T09:04:35;14.20;99.90
843;DHT22;407;48.884;9.126;2023-03-01T09:07:01;13.70;99.90
843;DHT22;407;48.884;9.126;2023-03-01T09:09:27;13.90;99.90
843;DHT22;407;48.884;9.126;2023-03-01T09:11:52;13.50;99.90
843;DHT22;407;48.884;9.126;2023-03-01T09:14:18;13.40;99.90
843;DHT22;407;48.884;9.126;2023-03-01T09:16:44;13.60;99.90
843;DHT22;407;48.884;9.126;2023-03-01T09:19:11;14.10;99.90
843;DHT22;407;48.884;9.126;2023-03-01T09:21:39;14.20;99.90
843;DHT22;407;48.884;9.126;2023-03-01T09:24:05;12.80;99.90
843;DHT22;407;48.884;9.126;2023-03-01T09:26:31;12.40;99.90
843;DHT22;407;48.884;9.126;2023-03-01T09:28:57;13.20;99.90
843;DHT22;407;48.884;9.126;2023-03-01T09:31:23;14.30;99.90
843;DHT22;407;48.884;9.126;2023-03-01T09:33:51;13.40;99.90
843;DHT22;407;48.884;9.126;2023-03-01T09:36:21;13.20;99.90
843;DHT22;407;48.884;9.126;2023-03-01T09:38:48;12.40;99.90
843;DHT22;407;48.884;9.126;2023-03-01T09:41:42;13.10;99.90
843;DHT22;407;48.884;9.126;2023-03-01T09:44:27;13.60;99.90
843;DHT22;407;48.884;9.126;2023-03-01T09:46:55;12.30;99.90
843;DHT22;407;48.884;9.126;2023-03-01T09:49:25;12.30;99.90
843;DHT22;407;48.884;9.126;2023-03-01T09:52:00;12.20;99.90
843;DHT22;407;48.884;9.126;2023-03-01T09:54:27;12.80;99.90
843;DHT22;407;48.884;9.126;2023-03-01T09:57:18;12.90;99.90
843;DHT22;407;48.884;9.126;2023-03-01T10:05:52;14.40;99.90
843;DHT22;407;48.884;9.126;2023-03-01T10:10:56;13.50;99.90
843;DHT22;407;48.884;9.126;2023-03-01T10:16:51;13.90;99.90
843;DHT22;407;48.884;9.126;2023-03-01T10:19:43;14.30;99.90
843;DHT22;407;48.884;9.126;2023-03-01T10:22:22;14.60;99.90
843;DHT22;407;48.884;9.126;2023-03-01T10:24:51;14.40;99.90
843;DHT22;407;48.884;9.126;2023-03-01T10:27:34;14.30;99.90
843;DHT22;407;48.884;9.126;2023-03-01T10:30:17;14.80;99.90
843;DHT22;407;48.884;9.126;2023-03-01T10:32:46;14.90;99.90
843;DHT22;407;48.884;9.126;2023-03-01T10:35:19;14.80;99.90
843;DHT22;407;48.884;9.126;2023-03-01T10:40:28;15.40;99.90
843;DHT22;407;48.884;9.126;2023-03-01T10:42:58;15.30;99.90
843;DHT22;407;48.884;9.126;2023-03-01T10:45:35;14.70;99.90
843;DHT22;407;48.884;9.126;2023-03-01T10:48:25;15.30;99.90
843;DHT22;407;48.884;9.126;2023-03-01T10:51:16;14.80;99.90
843;DHT22;407;48.884;9.126;2023-03-01T10:53:48;14.70;99.90
843;DHT22;407;48.884;9.126;2023-03-01T10:56:15;13.90;99.90
843;DHT22;407;48.884;9.126;2023-03-01T10:58:59;13.40;99.90
843;DHT22;407;48.884;9.126;2023-03-01T11:01:30;13.30;99.90
843;DHT22;407;48.884;9.126;2023-03-01T11:06:33;14.10;99.90
843;DHT22;407;48.884;9.126;2023-03-01T11:09:18;14.80;99.90
843;DHT22;407;48.884;9.126;2023-03-01T11:11:44;14.60;99.90
843;DHT22;407;48.884;9.126;2023-03-01T11:14:17;14.90;99.90
843;DHT22;407;48.884;9.126;2023-03-01T11:16:45;14.90;99.90
843;DHT22;407;48.884;9.126;2023-03-01T11:27:30;13.90;99.90
843;DHT22;407;48.884;9.126;2023-03-01T11:36:01;13.00;99.90
843;DHT22;407;48.884;9.126;2023-03-01T11:38:34;12.80;99.90
843;DHT22;407;48.884;9.126;2023-03-01T11:41:12;12.80;99.90
843;DHT22;407;48.884;9.126;2023-03-01T11:44:10;12.70;99.90
843;DHT22;407;48.884;9.126;2023-03-01T11:46:49;11.90;99.90
843;DHT22;407;48.884;9.126;2023-03-01T12:08:45;10.40;99.90
843;DHT22;407;48.884;9.126;2023-03-01T12:14:02;10.60;99.90
843;DHT22;407;48.884;9.126;2023-03-01T12:28:07;9.90;99.90
843;DHT22;407;48.884;9.126;2023-03-01T12:36:08;10.50;99.90
843;DHT22;407;48.884;9.126;2023-03-01T12:41:15;10.50;99.90
843;DHT22;407;48.884;9.126;2023-03-01T12:43:54;10.20;99.90
843;DHT22;407;48.884;9.126;2023-03-01T12:47:11;10.00;99.90
843;DHT22;407;48.884;9.126;2023-03-01T12:49:25;10.10;99.90
843;DHT22;407;48.884;9.126;2023-03-01T12:54:32;10.30;99.90
843;DHT22;407;48.884;9.126;2023-03-01T12:57:09;10.50;99.90
843;DHT22;407;48.884;9.126;2023-03-01T13:02:38;10.50;99.90
843;DHT22;407;48.884;9.126;2023-03-01T13:08:22;10.50;99.90
843;DHT22;407;48.884;9.126;2023-03-01T13:10:58;10.70;99.90
843;DHT22;407;48.884;9.126;2023-03-01T13:13:26;10.80;99.90
843;DHT22;407;48.884;9.126;2023-03-01T13:15:55;10.20;99.90
843;DHT22;407;48.884;9.126;2023-03-01T13:20:52;10.20;99.90
843;DHT22;407;48.884;9.126;2023-03-01T13:33:52;9.90;99.90
843;DHT22;407;48.884;9.126;2023-03-01T13:46:53;10.20;99.90
843;DHT22;407;48.884;9.126;2023-03-01T13:49:29;10.10;99.90
843;DHT22;407;48.884;9.126;2023-03-01T13:51:56;10.30;99.90
843;DHT22;407;48.884;9.126;2023-03-01T13:54:29;10.40;99.90
843;DHT22;407;48.884;9.126;2023-03-01T13:56:57;10.00;99.90
843;DHT22;407;48.884;9.126;2023-03-01T13:59:24;10.20;99.90
843;DHT22;407;48.884;9.126;2023-03-01T14:01:57;10.00;99.90
843;DHT22;407;48.884;9.126;2023-03-01T14:07:27;8.20;99.90
843;DHT22;407;48.884;9.126;2023-03-01T14:10:02;9.60;99.90
843;DHT22;407;48.884;9.126;2023-03-01T14:12:59;9.80;99.90
843;DHT22;407;48.884;9.126;2023-03-01T14:15:29;10.00;99.90
843;DHT22;407;48.884;9.126;2023-03-01T14:18:21;9.90;99.90
843;DHT22;407;48.884;9.126;2023-03-01T14:20:52;9.60;99.90
843;DHT22;407;48.884;9.126;2023-03-01T14:23:20;9.60;99.90
843;DHT22;407;48.884;9.126;2023-03-01T14:25:51;9.50;99.90
843;DHT22;407;48.884;9.126;2023-03-01T14:28:26;9.70;99.90
843;DHT22;407;48.884;9.126;2023-03-01T14:30:54;9.70;99.90
843;DHT22;407;48.884;9.126;2023-03-01T14:33:31;9.70;99.90
843;DHT22;407;48.884;9.126;2023-03-01T14:36:01;9.80;99.90
843;DHT22;407;48.884;9.126;2023-03-01T14:38:37;9.80;99.90
843;DHT22;407;48.884;9.126;2023-03-01T14:41:11;9.90;99.90
843;DHT22;407;48.884;9.126;2023-03-01T14:43:43;9.90;99.90
843;DHT22;407;48.884;9.126;2023-03-01T14:46:32;9.70;99.90
843;DHT22;407;48.884;9.126;2023-03-01T14:49:04;9.60;99.90
843;DHT22;407;48.884;9.126;2023-03-01T14:51:34;9.50;99.90
843;DHT22;407;48.884;9.126;2023-03-01T14:54:00;9.50;99.90
843;DHT22;407;48.884;9.126;2023-03-01T14:56:25;9.40;99.90
843;DHT22;407;48.884;9.126;2023-03-01T14:58:53;9.30;99.90
843;DHT22;407;48.884;9.126;2023-03-01T15:01:23;9.10;99.90
843;DHT22;407;48.884;9.126;2023-03-01T15:03:49;9.10;99.90
843;DHT22;407;48.884;9.126;2023-03-01T15:06:18;9.40;99.90
843;DHT22;407;48.884;9.126;2023-03-01T15:08:47;9.60;99.90
843;DHT22;407;48.884;9.126;2023-03-01T15:13:40;9.10;99.90
843;DHT22;407;48.884;9.126;2023-03-01T15:16:17;9.10;99.90
843;DHT22;407;48.884;9.126;2023-03-01T15:18:56;9.10;99.90
843;DHT22;407;48.884;9.126;2023-03-01T15:21:38;9.10;99.90
843;DHT22;407;48.884;9.126;2023-03-01T15:27:18;9.00;99.90
843;DHT22;407;48.884;9.126;2023-03-01T15:29:55;8.90;99.90
843;DHT22;407;48.884;9.126;2023-03-01T15:34:52;8.80;99.90
843;DHT22;407;48.884;9.126;2023-03-01T15:37:46;8.70;99.90
843;DHT22;407;48.884;9.126;2023-03-01T15:42:50;8.50;99.90
843;DHT22;407;48.884;9.126;2023-03-01T15:47:54;8.50;99.90
843;DHT22;407;48.884;9.126;2023-03-01T15:50:35;8.60;99.90
843;DHT22;407;48.884;9.126;2023-03-01T15:53:07;8.70;99.90
843;DHT22;407;48.884;9.126;2023-03-01T15:55:33;8.80;99.90
843;DHT22;407;48.884;9.126;2023-03-01T15:58:18;8.80;99.90
843;DHT22;407;48.884;9.126;2023-03-01T16:00:46;8.90;99.90
843;DHT22;407;48.884;9.126;2023-03-01T16:03:14;8.70;99.90
843;DHT22;407;48.884;9.126;2023-03-01T16:05:47;8.50;99.90
843;DHT22;407;48.884;9.126;2023-03-01T16:08:13;8.50;99.90
843;DHT22;407;48.884;9.126;2023-03-01T16:10:40;8.40;99.90
843;DHT22;407;48.884;9.126;2023-03-01T16:13:09;8.30;99.90
843;DHT22;407;48.884;9.126;2023-03-01T16:15:35;8.20;99.90
843;DHT22;407;48.884;9.126;2023-03-01T16:18:01;8.20;99.90
843;DHT22;407;48.884;9.126;2023-03-01T16:20:28;8.00;99.90
843;DHT22;407;48.884;9.126;2023-03-01T16:22:55;7.90;99.90
843;DHT22;407;48.884;9.126;2023-03-01T16:25:23;7.80;99.90
843;DHT22;407;48.884;9.126;2023-03-01T16:27:50;7.80;99.90
843;DHT22;407;48.884;9.126;2023-03-01T16:30:18;7.70;99.90
843;DHT22;407;48.884;9.126;2023-03-01T16:32:46;7.60;99.90
843;DHT22;407;48.884;9.126;2023-03-01T16:35:14;7.60;99.90
843;DHT22;407;48.884;9.126;2023-03-01T16:37:40;7.60;99.90
843;DHT22;407;48.884;9.126;2023-03-01T16:40:14;7.50;99.90
843;DHT22;407;48.884;9.126;2023-03-01T16:42:41;7.60;99.90
843;DHT22;407;48.884;9.126;2023-03-01T16:45:07;7.60;99.90
843;DHT22;407;48.884;9.126;2023-03-01T16:47:34;7.60;99.90
843;DHT22;407;48.884;9.126;2023-03-01T16:50:00;7.40;99.90
843;DHT22;407;48.884;9.126;2023-03-01T16:52:25;7.70;99.90
843;DHT22;407;48.884;9.126;2023-03-01T16:54:51;7.40;99.90
843;DHT22;407;48.884;9.126;2023-03-01T16:57:17;7.30;99.90
843;DHT22;407;48.884;9.126;2023-03-01T16:59:42;7.20;99.90
843;DHT22;407;48.884;9.126;2023-03-01T17:02:14;7.10;99.90
843;DHT22;407;48.884;9.126;2023-03-01T17:04:44;7.10;99.90
843;DHT22;407;48.884;9.126;2023-03-01T17:07:09;7.00;99.90
843;DHT22;407;48.884;9.126;2023-03-01T17:09:36;7.10;99.90
843;DHT22;407;48.884;9.126;2023-03-01T17:12:03;7.10;99.90
843;DHT22;407;48.884;9.126;2023-03-01T17:14:29;7.10;99.90
843;DHT22;407;48.884;9.126;2023-03-01T17:16:55;8.50;99.90
843;DHT22;407;48.884;9.126;2023-03-01T17:19:21;7.50;99.90
843;DHT22;407;48.884;9.126;2023-03-01T17:21:47;8.60;99.90
843;DHT22;407;48.884;9.126;2023-03-01T17:24:12;6.70;99.90
843;DHT22;407;48.884;9.126;2023-03-01T17:26:39;6.70;99.90
843;DHT22;407;48.884;9.126;2023-03-01T17:29:05;6.60;99.90
843;DHT22;407;48.884;9.126;2023-03-01T17:31:32;6.60;99.90
843;DHT22;407;48.884;9.126;2023-03-01T17:33:58;6.60;99.90
843;DHT22;407;48.884;9.126;2023-03-01T17:36:27;6.60;99.90
843;DHT22;407;48.884;9.126;2023-03-01T17:38:53;6.50;99.90
843;DHT22;407;48.884;9.126;2023-03-01T17:41:19;7.70;99.90
843;DHT22;407;48.884;9.126;2023-03-01T17:43:46;6.60;99.90
843;DHT22;407;48.884;9.126;2023-03-01T17:46:12;6.40;99.90
843;DHT22;407;48.884;9.126;2023-03-01T17:48:38;6.40;99.90
843;DHT22;407;48.884;9.126;2023-03-01T17:51:09;6.40;99.90
843;DHT22;407;48.884;9.126;2023-03-01T17:53:36;6.40;99.90
843;DHT22;407;48.884;9.126;2023-03-01T17:56:04;6.30;99.90
843;DHT22;407;48.884;9.126;2023-03-01T17:58:30;6.30;99.90
843;DHT22;407;48.884;9.126;2023-03-01T18:01:14;6.20;99.90
843;DHT22;407;48.884;9.126;2023-03-01T18:03:41;6.20;99.90
843;DHT22;407;48.884;9.126;2023-03-01T18:06:15;6.20;99.90
843;DHT22;407;48.884;9.126;2023-03-01T18:08:41;6.20;99.90
843;DHT22;407;48.884;9.126;2023-03-01T18:11:08;6.10;99.90
843;DHT22;407;48.884;9.126;2023-03-01T18:13:34;6.10;99.90
843;DHT22;407;48.884;9.126;2023-03-01T18:16:03;6.00;99.90
843;DHT22;407;48.884;9.126;2023-03-01T18:18:29;6.00;99.90
843;DHT22;407;48.884;9.126;2023-03-01T18:20:56;7.10;99.90
843;DHT22;407;48.884;9.126;2023-03-01T18:23:22;5.90;99.90
843;DHT22;407;48.884;9.126;2023-03-01T18:25:47;7.40;99.90
843;DHT22;407;48.884;9.126;2023-03-01T18:28:13;5.80;99.90
843;DHT22;407;48.884;9.126;2023-03-01T18:30:38;5.80;99.90
843;DHT22;407;48.884;9.126;2023-03-01T18:33:04;5.70;99.90
843;DHT22;407;48.884;9.126;2023-03-01T18:35:30;6.50;99.90
843;DHT22;407;48.884;9.126;2023-03-01T18:37:56;5.60;99.90
843;DHT22;407;48.884;9.126;2023-03-01T18:40:21;5.80;99.90
843;DHT22;407;48.884;9.126;2023-03-01T18:42:47;5.60;99.90
843;DHT22;407;48.884;9.126;2023-03-01T18:45:13;6.90;99.90
843;DHT22;407;48.884;9.126;2023-03-01T18:47:41;5.60;99.90
843;DHT22;407;48.884;9.126;2023-03-01T18:50:07;5.60;99.90
843;DHT22;407;48.884;9.126;2023-03-01T18:52:33;5.60;99.90
843;DHT22;407;48.884;9.126;2023-03-01T18:54:58;7.00;99.90
843;DHT22;407;48.884;9.126;2023-03-01T18:57:25;5.50;99.90
843;DHT22;407;48.884;9.126;2023-03-01T18:59:50;6.90;99.90
843;DHT22;407;48.884;9.126;2023-03-01T19:02:17;5.50;99.90
843;DHT22;407;48.884;9.126;2023-03-01T19:04:42;5.90;99.90
843;DHT22;407;48.884;9.126;2023-03-01T19:07:13;5.50;99.90
843;DHT22;407;48.884;9.126;2023-03-01T19:09:40;5.40;99.90
843;DHT22;407;48.884;9.126;2023-03-01T19:12:06;5.40;99.90
843;DHT22;407;48.884;9.126;2023-03-01T19:14:32;5.30;99.90
843;DHT22;407;48.884;9.126;2023-03-01T19:16:57;5.90;99.90
843;DHT22;407;48.884;9.126;2023-03-01T19:19:23;5.40;99.90
843;DHT22;407;48.884;9.126;2023-03-01T19:21:49;5.20;99.90
843;DHT22;407;48.884;9.126;2023-03-01T19:24:15;6.80;99.90
843;DHT22;407;48.884;9.126;2023-03-01T19:26:40;5.10;99.90
843;DHT22;407;48.884;9.126;2023-03-01T19:29:08;6.30;99.90
843;DHT22;407;48.884;9.126;2023-03-01T19:31:37;5.00;99.90
843;DHT22;407;48.884;9.126;2023-03-01T19:34:05;5.50;99.90
843;DHT22;407;48.884;9.126;2023-03-01T19:36:31;5.00;99.90
843;DHT22;407;48.884;9.126;2023-03-01T19:39:05;5.00;99.90
843;DHT22;407;48.884;9.126;2023-03-01T19:41:31;5.00;99.90
843;DHT22;407;48.884;9.126;2023-03-01T19:43:56;4.90;99.90
843;DHT22;407;48.884;9.126;2023-03-01T19:46:23;4.90;99.90
843;DHT22;407;48.884;9.126;2023-03-01T19:48:53;4.90;99.90
843;DHT22;407;48.884;9.126;2023-03-01T19:51:19;4.10;99.90
843;DHT22;407;48.884;9.126;2023-03-01T19:53:46;5.70;99.90
843;DHT22;407;48.884;9.126;2023-03-01T19:56:12;4.70;99.90
843;DHT22;407;48.884;9.126;2023-03-01T19:58:38;5.90;99.90
843;DHT22;407;48.884;9.126;2023-03-01T20:01:10;4.70;99.90
843;DHT22;407;48.884;9.126;2023-03-01T20:03:38;4.70;99.90
843;DHT22;407;48.884;9.126;2023-03-01T20:06:10;4.70;99.90
843;DHT22;407;48.884;9.126;2023-03-01T20:08:36;4.70;99.90
843;DHT22;407;48.884;9.126;2023-03-01T20:11:11;4.70;99.90
843;DHT22;407;48.884;9.126;2023-03-01T20:13:37;4.70;99.90
843;DHT22;407;48.884;9.126;2023-03-01T20:16:06;4.60;99.90
843;DHT22;407;48.884;9.126;2023-03-01T20:18:32;4.50;99.90
843;DHT22;407;48.884;9.126;2023-03-01T20:20:59;4.50;99.90
843;DHT22;407;48.884;9.126;2023-03-01T20:23:27;5.60;99.90
843;DHT22;407;48.884;9.126;2023-03-01T20:26:10;4.40;99.90
843;DHT22;407;48.884;9.126;2023-03-01T20:28:44;4.50;99.90
843;DHT22;407;48.884;9.126;2023-03-01T20:31:12;5.80;99.90
843;DHT22;407;48.884;9.126;2023-03-01T20:33:40;4.60;99.90
843;DHT22;407;48.884;9.126;2023-03-01T20:36:07;6.00;99.90
843;DHT22;407;48.884;9.126;2023-03-01T20:38:33;4.60;99.90
843;DHT22;407;48.884;9.126;2023-03-01T20:41:12;4.60;99.90
843;DHT22;407;48.884;9.126;2023-03-01T20:43:40;4.60;99.90
843;DHT22;407;48.884;9.126;2023-03-01T20:46:10;6.50;99.90
843;DHT22;407;48.884;9.126;2023-03-01T20:48:36;4.70;99.90
843;DHT22;407;48.884;9.126;2023-03-01T20:51:06;5.20;99.90
843;DHT22;407;48.884;9.126;2023-03-01T20:53:32;4.70;99.90
843;DHT22;407;48.884;9.126;2023-03-01T20:56:05;5.00;99.90
843;DHT22;407;48.884;9.126;2023-03-01T20:58:31;4.50;99.90
843;DHT22;407;48.884;9.126;2023-03-01T21:00:59;4.50;99.90
843;DHT22;407;48.884;9.126;2023-03-01T21:03:25;4.50;99.90
843;DHT22;407;48.884;9.126;2023-03-01T21:05:56;4.40;99.90
843;DHT22;407;48.884;9.126;2023-03-01T21:08:22;4.20;99.90
843;DHT22;407;48.884;9.126;2023-03-01T21:10:51;4.10;99.90
843;DHT22;407;48.884;9.126;2023-03-01T21:13:17;4.20;99.90
843;DHT22;407;48.884;9.126;2023-03-01T21:15:54;6.00;99.90
843;DHT22;407;48.884;9.126;2023-03-01T21:18:20;4.00;99.90
843;DHT22;407;48.884;9.126;2023-03-01T21:20:46;4.00;99.90
843;DHT22;407;48.884;9.126;2023-03-01T21:23:13;5.60;99.90
843;DHT22;407;48.884;9.126;2023-03-01T21:25:39;3.90;99.90
843;DHT22;407;48.884;9.126;2023-03-01T21:28:05;5.00;99.90
843;DHT22;407;48.884;9.126;2023-03-01T21:30:31;4.00;99.90
843;DHT22;407;48.884;9.126;2023-03-01T21:32:56;4.00;99.90
843;DHT22;407;48.884;9.126;2023-03-01T21:35:22;3.90;99.90
843;DHT22;407;48.884;9.126;2023-03-01T21:37:49;4.00;99.90
843;DHT22;407;48.884;9.126;2023-03-01T21:40:15;4.00;99.90
843;DHT22;407;48.884;9.126;2023-03-01T21:42:41;3.90;99.90
843;DHT22;407;48.884;9.126;2023-03-01T21:45:09;3.90;99.90
843;DHT22;407;48.884;9.126;2023-03-01T21:47:34;3.80;99.90
843;DHT22;407;48.884;9.126;2023-03-01T21:50:00;3.80;99.90
843;DHT22;407;48.884;9.126;2023-03-01T21:52:26;3.70;99.90
843;DHT22;407;48.884;9.126;2023-03-01T21:54:51;4.40;99.90
843;DHT22;407;48.884;9.126;2023-03-01T21:57:17;4.00;99.90
843;DHT22;407;48.884;9.126;2023-03-01T21:59:43;4.90;99.90
843;DHT22;407;48.884;9.126;2023-03-01T22:02:12;5.00;99.90
843;DHT22;407;48.884;9.126;2023-03-01T22:04:41;4.90;99.90
843;DHT22;407;48.884;9.126;2023-03-01T22:07:06;3.10;99.90
843;DHT22;407;48.884;9.126;2023-03-01T22:09:32;4.10;99.90
843;DHT22;407;48.884;9.126;2023-03-01T22:12:00;4.80;99.90
843;DHT22;407;48.884;9.126;2023-03-01T22:14:30;2.80;99.90
843;DHT22;407;48.884;9.126;2023-03-01T22:16:56;2.80;99.90
843;DHT22;407;48.884;9.126;2023-03-01T22:19:22;2.80;99.90
843;DHT22;407;48.884;9.126;2023-03-01T22:21:50;2.70;99.90
843;DHT22;407;48.884;9.126;2023-03-01T22:24:18;2.60;99.90
843;DHT22;407;48.884;9.126;2023-03-01T22:26:46;2.50;99.90
843;DHT22;407;48.884;9.126;2023-03-01T22:29:21;2.50;99.90
843;DHT22;407;48.884;9.126;2023-03-01T22:31:47;2.40;99.90
843;DHT22;407;48.884;9.126;2023-03-01T22:34:13;2.40;99.90
843;DHT22;407;48.884;9.126;2023-03-01T22:36:39;2.30;99.90
843;DHT22;407;48.884;9.126;2023-03-01T22:39:05;2.20;99.90
843;DHT22;407;48.884;9.126;2023-03-01T22:41:36;2.10;99.90
843;DHT22;407;48.884;9.126;2023-03-01T22:44:02;2.10;99.90
843;DHT22;407;48.884;9.126;2023-03-01T22:46:28;2.10;99.90
843;DHT22;407;48.884;9.126;2023-03-01T22:48:55;2.00;99.90
843;DHT22;407;48.884;9.126;2023-03-01T22:51:28;1.90;99.90
843;DHT22;407;48.884;9.126;2023-03-01T22:53:55;1.90;99.90
843;DHT22;407;48.884;9.126;2023-03-01T22:56:25;1.90;99.90
843;DHT22;407;48.884;9.126;2023-03-01T22:58:53;1.90;99.90
843;DHT22;407;48.884;9.126;2023-03-01T23:01:21;1.90;99.90
843;DHT22;407;48.884;9.126;2023-03-01T23:03:47;1.80;99.90